aviador You're here:

UKOO Decoded Metar

ODESSA in UKRAINE
Report Time2017-08-22 16:30:00
UTC Time2017-08-22 16:40:34
Flight Rules vfr VFR
Wind340° at 12 kt
W.Decomp.*RWY 34: 12.0 kt HW 0.8 kt LCW
W.Rank340° ranks 7
Current wind is above 340° avg. (9.1)
Visibility9999 m
Phenomena:N/A
Clouds:N/A
Expected CloudBase > 2,400 ft AGL from Temp-Dew spread
CeilingNone
Temp18°C (ISA +3)
Dew Point12°C (68% RH)
AAT14.3°C
QNH1010 hPa
Density Alt784 ft
Elevation115 ft
Report Wrong Elevation
Raw Report
UKOO 221630Z 34006MPS CAVOK 18/12 Q1010 R34/090060 NOSIG=

Extra information for UKOO:More info

Metar Taf Metar & Taf Last 4 Metars F.Rules Stats Wind Profile Meteogram Temp Stats Airport Information Weather charts Add Link Nearby VenuesMetar ALERT Operation Metar Decoded Social comments